Time;durP1;ratioP1;P1;durP2;ratioP2;P2;SDS_P1;SDS_P2;PMS_P1;PMS_P2;Temp;Humidity;BMP_temperature;BMP_pressure;BME280_temperature;BME280_humidity;BME280_pressure;Samples;Min_cycle;Max_cycle;Signal;HPM_P1;HPM_P2
2022/12/03 00:00:15;;;;;;;0.90;0.90;;;;;;;;;;7392926;19;20598;-63
2022/12/03 00:02:40;;;;;;;0.60;0.60;;;;;;;;;;7393100;19;20164;-63
2022/12/03 00:05:06;;;;;;;1.60;1.40;;;;;;;;;;7395523;19;20167;-63
2022/12/03 00:07:31;;;;;;;0.67;0.67;;;;;;;;;;7378822;19;20512;-63
2022/12/03 00:09:57;;;;;;;1.73;1.10;;;;;;;;;;7384264;19;20129;-63
2022/12/03 00:12:22;;;;;;;0.77;0.77;;;;;;;;;;7385203;19;20515;-63
2022/12/03 00:14:47;;;;;;;1.20;0.80;;;;;;;;;;7391387;19;20133;-63
2022/12/03 00:17:13;;;;;;;1.53;0.93;;;;;;;;;;7394538;19;20136;-63
2022/12/03 00:19:38;;;;;;;0.87;0.60;;;;;;;;;;7392727;19;20132;-63
2022/12/03 00:22:03;;;;;;;0.70;0.70;;;;;;;;;;7391444;19;20168;-63
2022/12/03 00:24:29;;;;;;;0.83;0.83;;;;;;;;;;7390843;19;20147;-63
2022/12/03 00:26:54;;;;;;;1.43;1.20;;;;;;;;;;7392631;19;20173;-63
2022/12/03 00:29:19;;;;;;;1.17;1.07;;;;;;;;;;7393981;19;20125;-63
2022/12/03 00:31:45;;;;;;;1.60;1.50;;;;;;;;;;7392466;19;20208;-63
2022/12/03 00:34:10;;;;;;;0.80;0.80;;;;;;;;;;7392845;19;20143;-63
2022/12/03 00:36:36;;;;;;;3.07;1.80;;;;;;;;;;7389961;19;20457;-63
2022/12/03 00:39:01;;;;;;;1.03;1.00;;;;;;;;;;7392990;19;20136;-63
2022/12/03 00:41:26;;;;;;;1.07;1.00;;;;;;;;;;7386809;19;20167;-63
2022/12/03 00:43:56;;;;;;;1.43;1.33;;;;;;;;;;7391934;19;20125;-63
2022/12/03 00:46:21;;;;;;;0.70;0.70;;;;;;;;;;7394636;19;20192;-63
2022/12/03 00:48:47;;;;;;;3.30;1.70;;;;;;;;;;7392953;19;20142;-63
2022/12/03 00:51:12;;;;;;;1.83;1.60;;;;;;;;;;7392751;19;20124;-64
2022/12/03 00:53:37;;;;;;;1.47;1.37;;;;;;;;;;7393596;19;20566;-64
2022/12/03 00:56:03;;;;;;;2.07;1.60;;;;;;;;;;7393481;19;20121;-64
2022/12/03 00:58:28;;;;;;;1.93;1.83;;;;;;;;;;7393205;19;20155;-64
2022/12/03 01:00:53;;;;;;;1.57;1.47;;;;;;;;;;7387685;19;20605;-64
2022/12/03 01:03:19;;;;;;;1.00;1.00;;;;;;;;;;7389896;19;20153;-64
2022/12/03 01:05:44;;;;;;;1.53;1.43;;;;;;;;;;7391843;19;20519;-64
2022/12/03 01:08:10;;;;;;;5.03;1.20;;;;;;;;;;7392222;19;20129;-64
2022/12/03 01:10:35;;;;;;;1.53;1.43;;;;;;;;;;7392353;19;20128;-64
2022/12/03 01:13:00;;;;;;;1.33;1.17;;;;;;;;;;7389373;19;20498;-64
2022/12/03 01:15:26;;;;;;;1.03;1.03;;;;;;;;;;7378078;19;20140;-64
2022/12/03 01:17:53;;;;;;;3.90;1.67;;;;;;;;;;7386959;19;20121;-64
2022/12/03 01:20:18;;;;;;;1.20;1.10;;;;;;;;;;7388023;19;20117;-64
2022/12/03 01:22:43;;;;;;;0.97;0.90;;;;;;;;;;7381667;19;20225;-64
2022/12/03 01:25:09;;;;;;;1.50;1.40;;;;;;;;;;7386173;19;20129;-64
2022/12/03 01:27:34;;;;;;;1.47;1.33;;;;;;;;;;7380477;19;20626;-64
2022/12/03 01:29:59;;;;;;;0.67;0.50;;;;;;;;;;7381233;19;20141;-64
2022/12/03 01:32:25;;;;;;;2.27;1.23;;;;;;;;;;7356926;19;20276;-64
2022/12/03 01:34:54;;;;;;;3.00;0.93;;;;;;;;;;7377648;19;20212;-64
2022/12/03 01:37:21;;;;;;;0.77;0.77;;;;;;;;;;7386212;19;20133;-64
2022/12/03 01:39:46;;;;;;;0.93;0.93;;;;;;;;;;7384644;19;20128;-64
2022/12/03 01:42:18;;;;;;;0.80;0.80;;;;;;;;;;7376540;19;20171;-64
2022/12/03 01:44:43;;;;;;;1.47;1.27;;;;;;;;;;7384558;19;20151;-64
2022/12/03 01:47:15;;;;;;;1.77;1.67;;;;;;;;;;7382963;19;20854;-64
2022/12/03 01:49:44;;;;;;;0.63;0.63;;;;;;;;;;7381118;19;20141;-64
2022/12/03 01:52:15;;;;;;;2.57;1.40;;;;;;;;;;7383826;19;20145;-64
2022/12/03 01:54:44;;;;;;;0.83;0.83;;;;;;;;;;7381836;19;20125;-64
2022/12/03 01:57:22;;;;;;;0.97;0.80;;;;;;;;;;7383940;19;20521;-64
2022/12/03 01:59:48;;;;;;;1.17;1.10;;;;;;;;;;7373529;19;20116;-64
2022/12/03 02:02:20;;;;;;;0.60;0.60;;;;;;;;;;7378877;19;20149;-64
2022/12/03 02:04:46;;;;;;;1.40;1.30;;;;;;;;;;7379270;19;20147;-64
2022/12/03 02:07:24;;;;;;;1.10;1.10;;;;;;;;;;7385999;19;20117;-64
2022/12/03 02:09:50;;;;;;;0.77;0.77;;;;;;;;;;7384092;19;20121;-64
2022/12/03 02:12:19;;;;;;;2.03;1.43;;;;;;;;;;7382478;19;20208;-64
2022/12/03 02:14:44;;;;;;;0.70;0.70;;;;;;;;;;7383061;19;20445;-63
2022/12/03 02:17:11;;;;;;;0.97;0.97;;;;;;;;;;7374322;19;20117;-64
2022/12/03 02:19:36;;;;;;;1.03;1.03;;;;;;;;;;7378760;19;20592;-64
2022/12/03 02:22:12;;;;;;;1.23;0.93;;;;;;;;;;7376433;19;20153;-64
2022/12/03 02:24:44;;;;;;;0.83;0.83;;;;;;;;;;7381781;19;20120;-63
2022/12/03 02:27:09;;;;;;;2.10;1.30;;;;;;;;;;7382900;19;20141;-64
2022/12/03 02:29:34;;;;;;;1.00;1.00;;;;;;;;;;7384384;19;20129;-63
2022/12/03 02:32:00;;;;;;;1.67;1.37;;;;;;;;;;7379980;19;20144;-63
2022/12/03 02:34:32;;;;;;;1.27;0.87;;;;;;;;;;7381398;19;20134;-64
2022/12/03 02:36:58;;;;;;;1.43;1.17;;;;;;;;;;7386378;19;20140;-64
2022/12/03 02:39:23;;;;;;;0.83;0.83;;;;;;;;;;7389281;19;20176;-64
2022/12/03 02:44:32;;;;;;;0.87;0.87;;;;;;;;;;7390435;19;20179;-64
2022/12/03 02:46:57;;;;;;;1.03;0.93;;;;;;;;;;7391579;19;20124;-64
2022/12/03 02:49:23;;;;;;;0.80;0.80;;;;;;;;;;7388253;19;20135;-64
2022/12/03 02:51:48;;;;;;;1.07;0.97;;;;;;;;;;7386585;19;20168;-64
2022/12/03 02:54:13;;;;;;;0.90;0.90;;;;;;;;;;7384059;19;20180;-64
2022/12/03 02:56:39;;;;;;;1.47;1.33;;;;;;;;;;7387713;19;20457;-64
2022/12/03 02:59:04;;;;;;;0.83;0.83;;;;;;;;;;7388779;19;20138;-64
2022/12/03 03:01:29;;;;;;;0.70;0.70;;;;;;;;;;7385524;19;20155;-64
2022/12/03 03:03:55;;;;;;;1.57;1.17;;;;;;;;;;7388497;19;20117;-64
2022/12/03 03:06:20;;;;;;;0.73;0.73;;;;;;;;;;7387604;19;20133;-64
2022/12/03 03:08:46;;;;;;;3.27;1.37;;;;;;;;;;7387977;19;20464;-64
2022/12/03 03:11:12;;;;;;;1.57;1.40;;;;;;;;;;7384610;19;20120;-64
2022/12/03 03:13:37;;;;;;;1.17;1.13;;;;;;;;;;7388271;19;20144;-64
2022/12/03 03:16:04;;;;;;;2.23;1.27;;;;;;;;;;7387891;19;20124;-63
2022/12/03 03:18:31;;;;;;;1.23;1.10;;;;;;;;;;7397152;19;20153;-64
2022/12/03 03:20:56;;;;;;;0.93;0.93;;;;;;;;;;7394700;19;20125;-64
2022/12/03 03:23:22;;;;;;;0.73;0.73;;;;;;;;;;7393844;19;20228;-64
2022/12/03 03:25:53;;;;;;;1.97;1.70;;;;;;;;;;7390267;19;20124;-64
2022/12/03 03:28:18;;;;;;;1.30;1.20;;;;;;;;;;7395038;19;20143;-64
2022/12/03 03:30:44;;;;;;;1.40;1.20;;;;;;;;;;7393769;19;20137;-64
2022/12/03 03:33:11;;;;;;;1.40;1.30;;;;;;;;;;7393954;19;20152;-64
2022/12/03 03:35:37;;;;;;;0.90;0.80;;;;;;;;;;7395047;19;20180;-64
2022/12/03 03:38:03;;;;;;;1.77;1.67;;;;;;;;;;7394547;19;20157;-63
2022/12/03 03:40:28;;;;;;;1.67;1.57;;;;;;;;;;7393290;19;20192;-64
2022/12/03 03:42:54;;;;;;;1.23;1.07;;;;;;;;;;7387096;19;20228;-64
2022/12/03 03:45:20;;;;;;;1.57;1.00;;;;;;;;;;7393997;19;20125;-64
2022/12/03 03:47:45;;;;;;;0.90;0.90;;;;;;;;;;7396839;19;20467;-64
2022/12/03 03:50:11;;;;;;;0.77;0.77;;;;;;;;;;7393347;19;20117;-64
2022/12/03 03:52:37;;;;;;;1.17;1.13;;;;;;;;;;7390944;19;20149;-64
2022/12/03 03:55:03;;;;;;;0.90;0.90;;;;;;;;;;7393149;19;20140;-64
2022/12/03 03:57:28;;;;;;;1.57;1.47;;;;;;;;;;7395442;19;20230;-64
2022/12/03 03:59:53;;;;;;;0.73;0.73;;;;;;;;;;7391987;19;20575;-64
2022/12/03 04:02:21;;;;;;;5.40;2.20;;;;;;;;;;7393421;19;20169;-63
2022/12/03 04:04:47;;;;;;;1.30;1.20;;;;;;;;;;7393007;19;20132;-64
2022/12/03 04:07:13;;;;;;;1.37;1.10;;;;;;;;;;7394901;19;20811;-64
2022/12/03 04:09:39;;;;;;;1.30;1.20;;;;;;;;;;7392626;19;20132;-64
2022/12/03 04:14:48;;;;;;;1.27;1.17;;;;;;;;;;7395001;19;20141;-64
2022/12/03 04:17:13;;;;;;;1.40;1.30;;;;;;;;;;7390879;19;20595;-64
2022/12/03 04:19:38;;;;;;;1.30;1.20;;;;;;;;;;7393142;19;20737;-64
2022/12/03 04:24:47;;;;;;;0.70;0.70;;;;;;;;;;7395115;19;20137;-64
2022/12/03 04:29:57;;;;;;;0.60;0.60;;;;;;;;;;7395141;19;20145;-64
2022/12/03 04:37:52;;;;;;;1.53;1.37;;;;;;;;;;7393905;19;20202;-64
2022/12/03 04:43:01;;;;;;;1.27;1.17;;;;;;;;;;7391984;19;20522;-64
2022/12/03 04:45:26;;;;;;;0.93;0.93;;;;;;;;;;7394430;19;20120;-64
2022/12/03 04:47:52;;;;;;;1.33;1.23;;;;;;;;;;7392837;19;20133;-63
2022/12/03 04:50:17;;;;;;;1.30;1.20;;;;;;;;;;7388172;19;20132;-63
2022/12/03 04:52:42;;;;;;;1.17;1.17;;;;;;;;;;7385883;19;20164;-63
2022/12/03 04:55:08;;;;;;;1.30;1.23;;;;;;;;;;7388042;19;20175;-64
2022/12/03 04:57:33;;;;;;;1.60;1.27;;;;;;;;;;7389342;19;20121;-64
2022/12/03 04:59:58;;;;;;;2.70;1.77;;;;;;;;;;7393276;19;20603;-64
2022/12/03 05:02:23;;;;;;;0.93;0.93;;;;;;;;;;7390452;19;20145;-64
2022/12/03 05:04:49;;;;;;;0.77;0.77;;;;;;;;;;7393742;19;20124;-64
2022/12/03 05:07:14;;;;;;;1.30;1.20;;;;;;;;;;7389962;19;20145;-64
2022/12/03 05:09:39;;;;;;;1.00;1.00;;;;;;;;;;7384835;19;20156;-64
2022/12/03 05:12:05;;;;;;;4.50;1.47;;;;;;;;;;7391223;19;20503;-64
2022/12/03 05:14:30;;;;;;;0.80;0.80;;;;;;;;;;7391822;19;20161;-64
2022/12/03 05:16:56;;;;;;;2.53;1.27;;;;;;;;;;7390716;19;20196;-64
2022/12/03 05:20:40;;;;;;;0.87;0.87;;;;;;;;;;7392016;19;20140;-64
2022/12/03 05:22:06;;;;;;;1.93;1.10;;;;;;;;;;7389715;19;20159;-63
2022/12/03 05:24:31;;;;;;;1.03;1.03;;;;;;;;;;7387543;19;20132;-64
2022/12/03 05:26:57;;;;;;;1.27;1.17;;;;;;;;;;7390459;19;20141;-64
2022/12/03 05:29:22;;;;;;;2.67;1.40;;;;;;;;;;7391225;19;20125;-64
2022/12/03 05:31:47;;;;;;;1.97;1.00;;;;;;;;;;7391535;19;20535;-64
2022/12/03 05:34:12;;;;;;;2.17;0.67;;;;;;;;;;7389561;19;20149;-63
2022/12/03 05:36:38;;;;;;;0.70;0.70;;;;;;;;;;7391876;19;20181;-64
2022/12/03 05:39:03;;;;;;;2.00;1.13;;;;;;;;;;7389944;19;20505;-63
2022/12/03 05:44:12;;;;;;;0.60;0.60;;;;;;;;;;7391233;19;20476;-64
2022/12/03 05:46:37;;;;;;;1.53;1.43;;;;;;;;;;7388863;19;20204;-64
2022/12/03 05:49:03;;;;;;;0.60;0.50;;;;;;;;;;7389418;19;20124;-63
2022/12/03 05:51:28;;;;;;;0.93;0.93;;;;;;;;;;7388537;19;20155;-64
2022/12/03 05:53:53;;;;;;;1.17;1.13;;;;;;;;;;7387259;19;20132;-63
2022/12/03 05:56:18;;;;;;;0.70;0.70;;;;;;;;;;7391251;19;20144;-63
2022/12/03 05:58:44;;;;;;;1.13;1.03;;;;;;;;;;7376369;19;20129;-63
2022/12/03 06:01:09;;;;;;;0.60;0.60;;;;;;;;;;7370681;19;20120;-64
2022/12/03 06:03:34;;;;;;;1.73;1.63;;;;;;;;;;7389118;19;20196;-66
2022/12/03 06:05:59;;;;;;;0.97;0.97;;;;;;;;;;7392042;19;20121;-64
2022/12/03 06:08:25;;;;;;;1.37;1.27;;;;;;;;;;7390200;19;20142;-64
2022/12/03 06:10:50;;;;;;;2.00;1.90;;;;;;;;;;7391034;19;20602;-64
2022/12/03 06:13:16;;;;;;;0.83;0.83;;;;;;;;;;7387336;19;20156;-63
2022/12/03 06:15:41;;;;;;;1.23;0.90;;;;;;;;;;7390944;19;20466;-63
2022/12/03 06:18:06;;;;;;;1.37;1.30;;;;;;;;;;7386530;19;20133;-64
2022/12/03 06:20:32;;;;;;;1.20;1.10;;;;;;;;;;7387151;19;20177;-68
2022/12/03 06:22:57;;;;;;;1.37;1.10;;;;;;;;;;7378649;19;20530;-64
2022/12/03 06:25:22;;;;;;;2.90;0.97;;;;;;;;;;7387781;19;20711;-64
2022/12/03 06:27:48;;;;;;;0.70;0.70;;;;;;;;;;7387169;19;20127;-64
2022/12/03 06:30:13;;;;;;;1.37;1.10;;;;;;;;;;7386904;19;20150;-64
2022/12/03 06:32:39;;;;;;;1.20;1.10;;;;;;;;;;7376806;19;20164;-64
2022/12/03 06:35:04;;;;;;;0.53;0.53;;;;;;;;;;7379437;19;20125;-64
2022/12/03 06:37:29;;;;;;;0.50;0.50;;;;;;;;;;7385766;19;20121;-64
2022/12/03 06:39:55;;;;;;;0.90;0.90;;;;;;;;;;7383117;19;20125;-64
2022/12/03 06:42:20;;;;;;;0.83;0.83;;;;;;;;;;7379097;19;20634;-64
2022/12/03 06:44:45;;;;;;;0.70;0.70;;;;;;;;;;7412536;19;20200;-94
2022/12/03 06:47:11;;;;;;;0.90;0.90;;;;;;;;;;7414804;19;20152;-94
2022/12/03 06:49:36;;;;;;;1.87;1.17;;;;;;;;;;7414281;19;20169;-95
2022/12/03 06:52:01;;;;;;;1.77;1.23;;;;;;;;;;7421664;19;20138;-96
2022/12/03 06:54:27;;;;;;;2.00;1.67;;;;;;;;;;7413883;19;20152;-95
2022/12/03 06:56:52;;;;;;;1.30;1.13;;;;;;;;;;7423214;19;20169;-95
2022/12/03 06:59:17;;;;;;;1.13;1.13;;;;;;;;;;7423964;19;20168;-96
2022/12/03 07:01:43;;;;;;;0.97;0.97;;;;;;;;;;7419620;19;20167;-96
2022/12/03 07:04:08;;;;;;;1.47;1.37;;;;;;;;;;7425255;19;20180;-95
2022/12/03 07:06:34;;;;;;;1.20;1.13;;;;;;;;;;7422698;19;20191;-96
2022/12/03 07:08:59;;;;;;;0.70;0.70;;;;;;;;;;7416315;19;20181;-95
2022/12/03 07:11:30;;;;;;;0.80;0.57;;;;;;;;;;7422352;19;20155;-95
2022/12/03 07:13:57;;;;;;;3.97;1.57;;;;;;;;;;7423117;19;20157;-95
2022/12/03 07:16:23;;;;;;;1.87;1.50;;;;;;;;;;7422945;19;20145;-95
2022/12/03 07:18:48;;;;;;;3.37;1.57;;;;;;;;;;7421882;19;20165;-96
2022/12/03 07:21:14;;;;;;;1.10;1.07;;;;;;;;;;7412093;19;20145;-95
2022/12/03 07:23:39;;;;;;;1.10;1.07;;;;;;;;;;7419659;19;20149;-95
2022/12/03 07:26:04;;;;;;;1.13;1.03;;;;;;;;;;7423975;19;20152;-95
2022/12/03 07:30:56;;;;;;;3.53;1.60;;;;;;;;;;7379448;19;20156;-63
2022/12/03 07:33:22;;;;;;;0.73;0.73;;;;;;;;;;7373318;19;20149;-63
2022/12/03 07:35:47;;;;;;;1.13;1.07;;;;;;;;;;7362477;19;20129;-63
2022/12/03 07:38:12;;;;;;;0.90;0.90;;;;;;;;;;7374860;19;20132;-63
2022/12/03 07:40:38;;;;;;;1.17;1.13;;;;;;;;;;7361885;19;20137;-63
2022/12/03 07:43:03;;;;;;;0.63;0.63;;;;;;;;;;7361522;19;20244;-63
2022/12/03 07:45:28;;;;;;;3.93;0.87;;;;;;;;;;7369827;19;20125;-63
2022/12/03 07:47:53;;;;;;;0.97;0.97;;;;;;;;;;7384650;19;20153;-63
2022/12/03 07:50:19;;;;;;;1.23;1.13;;;;;;;;;;7380589;19;20496;-63
2022/12/03 07:52:44;;;;;;;1.27;0.80;;;;;;;;;;7356589;19;20503;-63
2022/12/03 07:55:10;;;;;;;1.83;1.13;;;;;;;;;;7362103;19;20178;-63
2022/12/03 07:57:36;;;;;;;0.97;0.93;;;;;;;;;;7372840;19;20602;-63
2022/12/03 08:00:01;;;;;;;1.07;1.07;;;;;;;;;;7374594;19;20135;-63
2022/12/03 08:02:26;;;;;;;1.67;1.13;;;;;;;;;;7378983;19;20512;-63
2022/12/03 08:04:51;;;;;;;1.10;1.10;;;;;;;;;;7375056;19;20504;-63
2022/12/03 08:07:17;;;;;;;1.50;0.93;;;;;;;;;;7374071;19;20121;-63
2022/12/03 08:09:42;;;;;;;1.37;1.10;;;;;;;;;;7385719;19;20121;-63
2022/12/03 08:12:17;;;;;;;1.23;1.13;;;;;;;;;;7358792;19;21846;-63
2022/12/03 08:14:43;;;;;;;1.07;0.97;;;;;;;;;;7360930;19;20155;-63
2022/12/03 08:17:11;;;;;;;0.40;0.40;;;;;;;;;;7353140;19;21210;-63
2022/12/03 08:19:36;;;;;;;0.70;0.70;;;;;;;;;;7368797;19;20486;-63
2022/12/03 08:22:10;;;;;;;1.00;1.00;;;;;;;;;;7361643;19;20153;-63
2022/12/03 08:24:35;;;;;;;1.20;1.20;;;;;;;;;;7370841;19;20120;-63
2022/12/03 08:27:00;;;;;;;1.03;1.03;;;;;;;;;;7367771;19;20223;-63
2022/12/03 08:29:26;;;;;;;0.50;0.50;;;;;;;;;;7373390;19;20121;-63
2022/12/03 08:31:55;;;;;;;0.73;0.73;;;;;;;;;;7381136;19;20149;-63
2022/12/03 08:34:23;;;;;;;1.00;1.00;;;;;;;;;;7384852;19;20121;-63
2022/12/03 08:36:50;;;;;;;1.03;1.03;;;;;;;;;;7385071;19;20121;-63
2022/12/03 08:39:32;;;;;;;2.03;1.07;;;;;;;;;;7376351;19;20616;-63
2022/12/03 08:44:53;;;;;;;1.37;1.27;;;;;;;;;;7377215;19;20146;-63
2022/12/03 08:47:21;;;;;;;1.53;1.40;;;;;;;;;;7374652;19;20217;-63
2022/12/03 08:49:56;;;;;;;1.33;1.23;;;;;;;;;;7364174;19;20149;-63
2022/12/03 08:52:28;;;;;;;1.70;0.90;;;;;;;;;;7363286;19;20161;-63
2022/12/03 08:54:54;;;;;;;1.30;1.30;;;;;;;;;;7379614;19;20121;-63
2022/12/03 08:57:33;;;;;;;1.17;1.17;;;;;;;;;;7377897;19;20140;-62
2022/12/03 09:00:05;;;;;;;0.80;0.80;;;;;;;;;;7388039;19;20125;-62
2022/12/03 09:02:32;;;;;;;0.70;0.70;;;;;;;;;;7389230;19;20172;-62
2022/12/03 09:04:58;;;;;;;0.67;0.67;;;;;;;;;;7391543;19;20121;-62
2022/12/03 09:07:23;;;;;;;1.60;1.07;;;;;;;;;;7391326;19;20117;-62
2022/12/03 09:09:48;;;;;;;0.73;0.73;;;;;;;;;;7393102;19;20124;-62
2022/12/03 09:12:14;;;;;;;0.77;0.73;;;;;;;;;;7390794;19;20152;-62
2022/12/03 09:14:39;;;;;;;1.10;0.80;;;;;;;;;;7391386;19;20114;-62
2022/12/03 09:17:04;;;;;;;1.33;1.23;;;;;;;;;;7388284;19;20141;-62
2022/12/03 09:19:30;;;;;;;1.27;0.77;;;;;;;;;;7391563;19;20149;-62
2022/12/03 09:21:55;;;;;;;0.83;0.83;;;;;;;;;;7388309;19;20165;-62
2022/12/03 09:24:20;;;;;;;1.03;1.03;;;;;;;;;;7389774;19;20324;-62
2022/12/03 09:26:46;;;;;;;0.97;0.97;;;;;;;;;;7390908;19;20133;-62
2022/12/03 09:29:11;;;;;;;1.43;1.33;;;;;;;;;;7391352;19;20121;-62
2022/12/03 09:31:37;;;;;;;1.83;1.10;;;;;;;;;;7388191;19;20642;-62
2022/12/03 09:34:03;;;;;;;1.60;1.17;;;;;;;;;;7390644;19;20493;-63
2022/12/03 09:36:28;;;;;;;1.47;1.20;;;;;;;;;;7387384;19;20117;-62
2022/12/03 09:38:54;;;;;;;2.00;1.50;;;;;;;;;;7390477;19;20143;-62
2022/12/03 09:41:19;;;;;;;1.23;1.13;;;;;;;;;;7388842;19;20192;-62
2022/12/03 09:43:45;;;;;;;1.73;1.63;;;;;;;;;;7388466;19;20208;-62
2022/12/03 09:46:10;;;;;;;1.07;0.57;;;;;;;;;;7393156;19;20117;-62
2022/12/03 09:48:35;;;;;;;0.60;0.60;;;;;;;;;;7386668;19;20125;-62
2022/12/03 09:51:01;;;;;;;0.37;0.37;;;;;;;;;;7384593;19;20631;-62
2022/12/03 09:53:27;;;;;;;1.20;1.10;;;;;;;;;;7383828;19;20602;-62
2022/12/03 09:55:53;;;;;;;0.83;0.83;;;;;;;;;;7392423;19;20133;-64
2022/12/03 09:58:18;;;;;;;0.80;0.80;;;;;;;;;;7376560;19;20193;-62
2022/12/03 10:00:49;;;;;;;0.50;0.50;;;;;;;;;;7379920;19;20116;-62
2022/12/03 10:03:17;;;;;;;1.30;1.20;;;;;;;;;;7369815;19;20145;-62
2022/12/03 10:05:42;;;;;;;0.80;0.80;;;;;;;;;;7390475;19;20128;-63
2022/12/03 10:08:11;;;;;;;1.10;1.10;;;;;;;;;;7388761;19;20121;-63
2022/12/03 10:10:38;;;;;;;1.33;1.23;;;;;;;;;;7375604;19;20532;-62
2022/12/03 10:13:04;;;;;;;1.23;1.13;;;;;;;;;;7361321;19;20614;-61
2022/12/03 10:15:30;;;;;;;1.80;1.70;;;;;;;;;;7387899;19;20121;-61
2022/12/03 10:17:56;;;;;;;0.87;0.87;;;;;;;;;;7390763;19;20634;-61
2022/12/03 10:20:23;;;;;;;1.30;1.17;;;;;;;;;;7387731;19;20157;-61
2022/12/03 10:22:49;;;;;;;1.50;1.40;;;;;;;;;;7389190;19;20145;-61
2022/12/03 10:25:17;;;;;;;1.50;1.40;;;;;;;;;;7388349;19;20140;-61
2022/12/03 10:27:42;;;;;;;1.03;0.50;;;;;;;;;;7388321;19;20196;-61
2022/12/03 10:30:16;;;;;;;1.77;1.67;;;;;;;;;;7389849;19;20611;-61
2022/12/03 10:32:44;;;;;;;0.97;0.97;;;;;;;;;;7384642;19;20145;-61
2022/12/03 10:35:14;;;;;;;0.73;0.73;;;;;;;;;;7388201;19;20129;-61
2022/12/03 10:37:56;;;;;;;0.40;0.40;;;;;;;;;;7387124;19;20125;-61
2022/12/03 10:40:48;;;;;;;1.70;1.60;;;;;;;;;;7389621;19;20121;-61
2022/12/03 10:43:13;;;;;;;0.30;0.30;;;;;;;;;;7384401;19;20176;-61
2022/12/03 10:45:39;;;;;;;0.30;0.30;;;;;;;;;;7386086;19;20143;-61
2022/12/03 10:48:07;;;;;;;0.50;0.50;;;;;;;;;;7372880;19;20121;-61
2022/12/03 10:50:33;;;;;;;0.50;0.50;;;;;;;;;;7381757;19;20598;-61
2022/12/03 10:52:58;;;;;;;0.57;0.57;;;;;;;;;;7377056;19;20149;-61
2022/12/03 10:55:24;;;;;;;0.80;0.80;;;;;;;;;;7387784;19;20121;-61
2022/12/03 10:57:49;;;;;;;0.60;0.60;;;;;;;;;;7390109;19;20135;-61
2022/12/03 11:00:17;;;;;;;0.90;0.87;;;;;;;;;;7385249;19;20472;-61
2022/12/03 11:02:42;;;;;;;0.60;0.60;;;;;;;;;;7370689;19;20144;-61
2022/12/03 11:05:13;;;;;;;0.43;0.43;;;;;;;;;;7375522;19;20454;-61
2022/12/03 11:07:38;;;;;;;0.40;0.40;;;;;;;;;;7366778;19;20865;-61
2022/12/03 11:10:05;;;;;;;0.70;0.70;;;;;;;;;;7364704;19;20124;-61
2022/12/03 11:12:33;;;;;;;0.30;0.30;;;;;;;;;;7369275;19;20151;-61
2022/12/03 11:15:05;;;;;;;1.53;1.10;;;;;;;;;;7381639;19;20155;-61
2022/12/03 11:17:42;;;;;;;1.07;1.07;;;;;;;;;;7368538;19;20139;-61
2022/12/03 11:20:12;;;;;;;0.37;0.37;;;;;;;;;;7377111;19;20145;-61
2022/12/03 11:22:41;;;;;;;0.90;0.90;;;;;;;;;;7361571;19;20152;-61
2022/12/03 11:25:25;;;;;;;0.40;0.40;;;;;;;;;;7369763;19;20521;-61
2022/12/03 11:28:12;;;;;;;1.10;0.87;;;;;;;;;;7372709;19;20201;-61
2022/12/03 11:30:52;;;;;;;0.90;0.90;;;;;;;;;;7376407;19;20188;-61
2022/12/03 11:33:31;;;;;;;0.20;0.20;;;;;;;;;;7373010;19;20176;-61
2022/12/03 11:36:02;;;;;;;0.50;0.50;;;;;;;;;;7370031;19;20124;-61
2022/12/03 11:38:36;;;;;;;0.20;0.20;;;;;;;;;;7373722;19;20485;-60
2022/12/03 11:41:41;;;;;;;0.20;0.20;;;;;;;;;;7374218;19;20161;-62
2022/12/03 11:44:27;;;;;;;0.30;0.30;;;;;;;;;;7377055;19;20137;-61
2022/12/03 11:46:53;;;;;;;0.57;0.57;;;;;;;;;;7378748;19;20146;-61
2022/12/03 11:49:28;;;;;;;1.23;0.60;;;;;;;;;;7392084;19;20136;-61
2022/12/03 11:51:53;;;;;;;0.60;0.60;;;;;;;;;;7383579;19;20156;-61
2022/12/03 11:54:21;;;;;;;0.30;0.30;;;;;;;;;;7390571;19;20113;-61
2022/12/03 11:56:48;;;;;;;0.20;0.20;;;;;;;;;;7394608;19;20129;-61
2022/12/03 11:59:14;;;;;;;0.30;0.30;;;;;;;;;;7393273;19;20581;-61
2022/12/03 12:01:40;;;;;;;1.37;1.27;;;;;;;;;;7392155;19;20149;-61
2022/12/03 12:04:14;;;;;;;0.30;0.30;;;;;;;;;;7393168;19;20180;-61
2022/12/03 12:06:41;;;;;;;2.60;0.87;;;;;;;;;;7382288;19;23234;-61
2022/12/03 12:09:06;;;;;;;0.40;0.40;;;;;;;;;;7378680;19;20144;-62
2022/12/03 12:11:34;;;;;;;0.27;0.27;;;;;;;;;;7392533;19;20630;-62
2022/12/03 12:14:08;;;;;;;0.50;0.50;;;;;;;;;;7391439;19;20129;-62
2022/12/03 12:16:53;;;;;;;2.73;0.50;;;;;;;;;;7392217;19;20131;-62
2022/12/03 12:19:38;;;;;;;0.40;0.40;;;;;;;;;;7393974;19;20148;-62
2022/12/03 12:22:17;;;;;;;1.13;1.03;;;;;;;;;;7390826;19;20647;-62
2022/12/03 12:24:46;;;;;;;0.43;0.43;;;;;;;;;;7391675;19;20582;-62
2022/12/03 12:27:13;;;;;;;0.27;0.27;;;;;;;;;;7393243;19;20125;-62
2022/12/03 12:29:41;;;;;;;0.70;0.70;;;;;;;;;;7391916;19;20124;-62
2022/12/03 12:32:09;;;;;;;0.80;0.80;;;;;;;;;;7389095;19;20160;-62
2022/12/03 12:34:42;;;;;;;0.70;0.70;;;;;;;;;;7394454;19;20140;-62
2022/12/03 12:37:18;;;;;;;0.30;0.30;;;;;;;;;;7391878;19;20161;-62
2022/12/03 12:39:43;;;;;;;0.63;0.47;;;;;;;;;;7394246;19;20135;-62
2022/12/03 12:42:27;;;;;;;0.30;0.30;;;;;;;;;;7386230;19;20148;-62
2022/12/03 12:44:54;;;;;;;0.43;0.43;;;;;;;;;;7389525;19;20146;-62
2022/12/03 12:47:19;;;;;;;0.63;0.63;;;;;;;;;;7390293;19;20125;-62
2022/12/03 12:49:45;;;;;;;0.20;0.20;;;;;;;;;;7392778;19;20125;-62
2022/12/03 12:52:13;;;;;;;0.53;0.53;;;;;;;;;;7390913;19;20174;-62
2022/12/03 12:54:39;;;;;;;0.37;0.37;;;;;;;;;;7391808;19;20598;-62
2022/12/03 12:57:12;;;;;;;0.30;0.30;;;;;;;;;;7391341;19;20125;-62
2022/12/03 12:59:37;;;;;;;0.60;0.60;;;;;;;;;;7375539;19;20743;-62
2022/12/03 13:02:30;;;;;;;0.53;0.37;;;;;;;;;;7388922;19;20625;-62
2022/12/03 13:04:55;;;;;;;0.30;0.30;;;;;;;;;;7394891;19;20137;-63
2022/12/03 13:07:21;;;;;;;0.73;0.73;;;;;;;;;;7392899;19;20124;-62
2022/12/03 13:09:50;;;;;;;0.30;0.30;;;;;;;;;;7389201;19;20125;-62
2022/12/03 13:12:20;;;;;;;0.67;0.53;;;;;;;;;;7372629;19;20490;-62
2022/12/03 13:14:45;;;;;;;0.60;0.60;;;;;;;;;;7381050;19;20129;-62
2022/12/03 13:17:24;;;;;;;0.37;0.37;;;;;;;;;;7368398;19;20133;-62
2022/12/03 13:19:50;;;;;;;0.80;0.80;;;;;;;;;;7384215;19;20131;-62
2022/12/03 13:22:19;;;;;;;0.53;0.53;;;;;;;;;;7376134;19;20149;-62
2022/12/03 13:24:49;;;;;;;0.60;0.60;;;;;;;;;;7369013;19;20125;-62
2022/12/03 13:27:14;;;;;;;0.50;0.50;;;;;;;;;;7373520;19;20129;-62
2022/12/03 13:29:40;;;;;;;0.30;0.30;;;;;;;;;;7382333;19;20133;-62
2022/12/03 13:32:11;;;;;;;0.30;0.30;;;;;;;;;;7371108;19;20140;-62
2022/12/03 13:34:36;;;;;;;0.50;0.50;;;;;;;;;;7374481;19;20151;-62
2022/12/03 13:37:07;;;;;;;0.50;0.43;;;;;;;;;;7387215;19;20124;-62
2022/12/03 13:39:37;;;;;;;0.40;0.40;;;;;;;;;;7388117;19;20202;-62
2022/12/03 13:45:00;;;;;;;0.50;0.50;;;;;;;;;;7392852;19;20212;-62
2022/12/03 13:47:25;;;;;;;0.30;0.30;;;;;;;;;;7390568;19;20128;-62
2022/12/03 13:49:57;;;;;;;0.30;0.30;;;;;;;;;;7392420;19;20125;-61
2022/12/03 13:52:24;;;;;;;0.73;0.73;;;;;;;;;;7387380;19;20145;-61
2022/12/03 13:54:52;;;;;;;0.70;0.70;;;;;;;;;;7374855;19;20121;-61
2022/12/03 13:57:17;;;;;;;1.10;0.83;;;;;;;;;;7387663;19;20117;-61
2022/12/03 13:59:43;;;;;;;0.30;0.30;;;;;;;;;;7390837;19;20132;-61
2022/12/03 14:02:08;;;;;;;0.70;0.70;;;;;;;;;;7385373;19;20152;-61
2022/12/03 14:04:34;;;;;;;0.30;0.30;;;;;;;;;;7388728;19;20128;-61
2022/12/03 14:06:59;;;;;;;0.47;0.47;;;;;;;;;;7373670;19;20121;-61
2022/12/03 14:09:25;;;;;;;0.43;0.43;;;;;;;;;;7379400;19;20139;-61
2022/12/03 14:14:34;;;;;;;0.37;0.37;;;;;;;;;;7373152;19;20619;-61
2022/12/03 14:16:59;;;;;;;0.40;0.40;;;;;;;;;;7374641;19;20109;-61
2022/12/03 14:19:24;;;;;;;0.30;0.30;;;;;;;;;;7376556;19;20740;-61
2022/12/03 14:21:50;;;;;;;0.20;0.20;;;;;;;;;;7374466;19;20156;-61
2022/12/03 14:24:15;;;;;;;0.20;0.20;;;;;;;;;;7375729;19;20128;-61
2022/12/03 14:26:40;;;;;;;0.30;0.30;;;;;;;;;;7381878;19;20149;-61
2022/12/03 14:29:05;;;;;;;0.50;0.50;;;;;;;;;;7375904;19;20133;-61
2022/12/03 14:31:31;;;;;;;0.53;0.53;;;;;;;;;;7378201;19;20602;-61
2022/12/03 14:33:56;;;;;;;0.87;0.87;;;;;;;;;;7372766;19;20204;-61
2022/12/03 14:36:21;;;;;;;0.50;0.50;;;;;;;;;;7379159;19;20158;-61
2022/12/03 14:38:46;;;;;;;0.40;0.40;;;;;;;;;;7373214;19;20483;-61
2022/12/03 14:43:55;;;;;;;0.30;0.30;;;;;;;;;;7371372;19;20131;-62
2022/12/03 14:46:21;;;;;;;0.60;0.60;;;;;;;;;;7375605;19;20556;-61
2022/12/03 14:48:46;;;;;;;0.30;0.30;;;;;;;;;;7373694;19;20222;-61
2022/12/03 14:51:11;;;;;;;0.43;0.43;;;;;;;;;;7381822;19;20120;-61
2022/12/03 14:53:37;;;;;;;0.30;0.30;;;;;;;;;;7380754;19;20117;-61
2022/12/03 14:56:02;;;;;;;0.30;0.30;;;;;;;;;;7384936;19;20177;-61
2022/12/03 14:58:27;;;;;;;0.30;0.30;;;;;;;;;;7373292;19;20124;-61
2022/12/03 15:00:53;;;;;;;0.20;0.20;;;;;;;;;;7375797;19;20135;-61
2022/12/03 15:03:18;;;;;;;0.50;0.50;;;;;;;;;;7369739;19;20148;-61
2022/12/03 15:05:43;;;;;;;0.37;0.37;;;;;;;;;;7369548;19;20124;-61
2022/12/03 15:08:09;;;;;;;1.53;0.83;;;;;;;;;;7379447;19;20129;-61
2022/12/03 15:10:34;;;;;;;0.50;0.50;;;;;;;;;;7376751;19;20194;-61
2022/12/03 15:12:59;;;;;;;0.50;0.50;;;;;;;;;;7378354;19;20172;-62
2022/12/03 15:15:25;;;;;;;0.20;0.20;;;;;;;;;;7377352;19;20125;-61
2022/12/03 15:17:50;;;;;;;0.20;0.20;;;;;;;;;;7378569;19;20135;-61